Time;durP1;ratioP1;P1;durP2;ratioP2;P2;SDS_P1;SDS_P2;PMS_P1;PMS_P2;Temp;Humidity;BMP_temperature;BMP_pressure;BME280_temperature;BME280_humidity;BME280_pressure;Samples;Min_cycle;Max_cycle;Signal;HPM_P1;HPM_P2
2022/08/01 00:00:37;;;;;;;14.73;9.25;;;;;;;;;;4878297;29;20109;-80
2022/08/01 00:03:02;;;;;;;13.48;9.57;;;;;;;;;;4876836;29;20127;-80
2022/08/01 00:57:16;;;;;;;9.45;6.85;;;;;;;;;;4860131;29;20486;-81
2022/08/01 00:59:42;;;;;;;11.30;7.18;;;;;;;;;;4861305;29;20042;-79
2022/08/01 01:02:08;;;;;;;14.70;6.97;;;;;;;;;;4860956;29;20523;-80
2022/08/01 01:04:34;;;;;;;8.65;7.15;;;;;;;;;;4861359;29;20124;-80
2022/08/01 01:07:00;;;;;;;7.72;6.93;;;;;;;;;;4861510;29;20153;-80
2022/08/01 01:09:46;;;;;;;10.05;7.32;;;;;;;;;;4845837;29;20048;-80
2022/08/01 01:12:22;;;;;;;9.25;7.75;;;;;;;;;;4862762;29;20049;-81
2022/08/01 01:14:53;;;;;;;9.23;8.20;;;;;;;;;;4882163;29;20046;-81
2022/08/01 01:17:21;;;;;;;8.95;7.55;;;;;;;;;;4851368;29;20316;-80
2022/08/01 01:19:47;;;;;;;8.75;7.55;;;;;;;;;;4864061;29;20053;-80
2022/08/01 01:22:26;;;;;;;7.20;6.60;;;;;;;;;;4862319;29;20049;-79
2022/08/01 01:24:58;;;;;;;10.55;7.45;;;;;;;;;;4861277;29;20515;-81
2022/08/01 01:27:26;;;;;;;9.32;7.60;;;;;;;;;;4860388;29;20058;-79
2022/08/01 01:29:52;;;;;;;10.50;7.43;;;;;;;;;;4844348;29;20126;-80
2022/08/01 01:32:21;;;;;;;8.63;7.70;;;;;;;;;;4843957;29;20045;-80
2022/08/01 01:34:47;;;;;;;9.10;6.65;;;;;;;;;;4843864;29;20053;-81
2022/08/01 01:37:17;;;;;;;7.35;6.63;;;;;;;;;;4828830;29;20065;-78
2022/08/01 01:39:43;;;;;;;7.10;6.40;;;;;;;;;;4843710;29;20072;-78
2022/08/01 01:42:09;;;;;;;9.15;6.35;;;;;;;;;;4859836;29;20030;-80
2022/08/01 01:44:35;;;;;;;11.13;6.75;;;;;;;;;;4843834;29;20677;-78
2022/08/01 01:47:01;;;;;;;7.95;7.05;;;;;;;;;;4843278;29;20042;-79
2022/08/01 01:49:27;;;;;;;11.32;7.47;;;;;;;;;;4860474;29;20049;-81
2022/08/01 01:51:54;;;;;;;10.43;7.03;;;;;;;;;;4843729;29;20052;-79
2022/08/01 01:54:20;;;;;;;19.10;7.43;;;;;;;;;;4843792;29;20537;-80
2022/08/01 01:56:49;;;;;;;11.88;7.60;;;;;;;;;;4859812;29;20078;-80
2022/08/01 01:59:18;;;;;;;8.68;7.43;;;;;;;;;;4843653;29;20094;-79
2022/08/01 02:01:44;;;;;;;7.50;6.80;;;;;;;;;;4843475;29;20542;-80
2022/08/01 02:04:10;;;;;;;8.15;7.15;;;;;;;;;;4860165;29;20053;-80
2022/08/01 02:06:36;;;;;;;10.98;7.50;;;;;;;;;;4860810;29;20048;-79
2022/08/01 02:09:02;;;;;;;7.53;6.72;;;;;;;;;;4860305;29;20065;-80
2022/08/01 02:11:28;;;;;;;10.65;7.78;;;;;;;;;;4859337;29;20042;-79
2022/08/01 02:13:59;;;;;;;8.07;7.35;;;;;;;;;;4844096;29;20041;-79
2022/08/01 02:16:25;;;;;;;12.18;7.88;;;;;;;;;;4859097;29;20143;-80
2022/08/01 02:18:51;;;;;;;12.73;9.02;;;;;;;;;;4858873;29;20582;-80
2022/08/01 02:21:20;;;;;;;9.43;8.27;;;;;;;;;;4842506;29;20077;-80
2022/08/01 02:23:46;;;;;;;13.45;8.07;;;;;;;;;;4859718;29;20079;-80
2022/08/01 02:26:13;;;;;;;9.40;7.38;;;;;;;;;;4859441;29;20050;-80
2022/08/01 02:28:41;;;;;;;11.02;8.73;;;;;;;;;;4860258;29;20060;-81
2022/08/01 02:31:08;;;;;;;7.95;7.15;;;;;;;;;;4860712;29;20132;-78
2022/08/01 02:33:37;;;;;;;7.93;7.32;;;;;;;;;;4854938;29;20081;-78
2022/08/01 02:36:04;;;;;;;9.83;8.10;;;;;;;;;;4873193;29;20033;-80
2022/08/01 02:38:31;;;;;;;9.65;7.68;;;;;;;;;;4867265;29;20056;-81
2022/08/01 02:40:58;;;;;;;8.75;7.40;;;;;;;;;;4860081;29;20049;-80
2022/08/01 02:43:24;;;;;;;7.50;6.90;;;;;;;;;;4858403;29;20056;-81
2022/08/01 02:45:51;;;;;;;8.35;7.10;;;;;;;;;;4859560;29;20041;-79
2022/08/01 02:48:17;;;;;;;9.35;7.40;;;;;;;;;;4857656;29;20053;-80
2022/08/01 02:50:44;;;;;;;8.43;7.45;;;;;;;;;;4858802;29;20534;-78
2022/08/01 02:53:10;;;;;;;13.20;7.70;;;;;;;;;;4842178;29;20127;-79
2022/08/01 02:55:36;;;;;;;8.88;8.02;;;;;;;;;;4841776;29;20511;-80
2022/08/01 02:58:02;;;;;;;9.23;6.78;;;;;;;;;;4842076;29;20077;-80
2022/08/01 03:00:28;;;;;;;7.68;6.90;;;;;;;;;;4858954;29;20446;-79
2022/08/01 03:02:54;;;;;;;12.02;7.18;;;;;;;;;;4842038;29;20045;-78
2022/08/01 03:05:21;;;;;;;8.13;7.45;;;;;;;;;;4859273;29;20140;-79
2022/08/01 03:07:47;;;;;;;9.50;7.25;;;;;;;;;;4873622;29;20053;-79
2022/08/01 03:10:13;;;;;;;8.63;6.72;;;;;;;;;;4863960;29;20061;-78
2022/08/01 03:12:39;;;;;;;9.02;6.97;;;;;;;;;;4859489;29;20138;-78
2022/08/01 03:15:05;;;;;;;11.95;7.60;;;;;;;;;;4826626;29;20102;-80
2022/08/01 03:17:31;;;;;;;8.00;6.82;;;;;;;;;;4858545;29;20056;-78
2022/08/01 03:19:57;;;;;;;7.47;6.78;;;;;;;;;;4859249;29;20159;-79
2022/08/01 03:22:24;;;;;;;11.00;6.50;;;;;;;;;;4857998;29;20075;-78
2022/08/01 03:24:50;;;;;;;11.65;6.70;;;;;;;;;;4857911;29;20052;-79
2022/08/01 03:27:18;;;;;;;8.50;6.32;;;;;;;;;;4841246;29;20132;-78
2022/08/01 03:29:44;;;;;;;6.85;6.25;;;;;;;;;;4841372;29;20144;-79
2022/08/01 03:32:10;;;;;;;8.15;6.35;;;;;;;;;;4841333;29;20045;-79
2022/08/01 03:34:36;;;;;;;11.60;6.65;;;;;;;;;;4858036;29;20161;-80
2022/08/01 03:37:03;;;;;;;9.18;6.80;;;;;;;;;;4857869;29;20459;-79
2022/08/01 03:39:30;;;;;;;10.88;6.03;;;;;;;;;;4841380;29;20037;-80
2022/08/01 03:41:57;;;;;;;9.55;6.90;;;;;;;;;;4840998;29;20045;-81
2022/08/01 03:44:24;;;;;;;10.50;7.45;;;;;;;;;;4857735;29;20033;-82
2022/08/01 03:46:53;;;;;;;13.00;8.30;;;;;;;;;;4857765;29;20045;-82
2022/08/01 03:49:23;;;;;;;10.18;8.30;;;;;;;;;;4841051;29;20048;-82
2022/08/01 03:51:49;;;;;;;15.70;8.32;;;;;;;;;;4841227;29;20068;-81
2022/08/01 03:54:20;;;;;;;10.60;6.88;;;;;;;;;;4857328;29;20519;-81
2022/08/01 03:56:46;;;;;;;14.93;7.90;;;;;;;;;;4840652;29;20464;-80
2022/08/01 03:59:12;;;;;;;11.55;6.70;;;;;;;;;;4840937;29;20521;-79
2022/08/01 04:01:38;;;;;;;14.13;8.65;;;;;;;;;;4840873;29;20128;-80
2022/08/01 04:04:05;;;;;;;6.65;5.97;;;;;;;;;;4840793;29;20130;-79
2022/08/01 04:06:31;;;;;;;7.90;6.00;;;;;;;;;;4857256;29;20034;-77
2022/08/01 04:08:57;;;;;;;7.53;5.47;;;;;;;;;;4857127;29;20113;-78
2022/08/01 04:11:24;;;;;;;7.20;5.53;;;;;;;;;;4856999;29;20140;-78
2022/08/01 04:13:51;;;;;;;6.40;5.30;;;;;;;;;;4857724;29;20523;-78
2022/08/01 04:16:16;;;;;;;9.10;4.95;;;;;;;;;;4860222;29;20049;-76
2022/08/01 04:18:42;;;;;;;15.65;6.13;;;;;;;;;;4860706;29;20109;-78
2022/08/01 04:21:08;;;;;;;7.47;4.78;;;;;;;;;;4860378;29;20128;-80
2022/08/01 04:23:33;;;;;;;5.43;4.70;;;;;;;;;;4860759;29;20771;-78
2022/08/01 04:26:01;;;;;;;5.82;4.68;;;;;;;;;;4860859;29;20080;-78
2022/08/01 04:28:28;;;;;;;5.68;4.75;;;;;;;;;;4861097;29;20061;-78
2022/08/01 04:30:54;;;;;;;7.95;5.10;;;;;;;;;;4858246;29;20037;-76
2022/08/01 04:33:20;;;;;;;5.00;4.43;;;;;;;;;;4859569;29;20114;-77
2022/08/01 04:35:46;;;;;;;6.75;5.38;;;;;;;;;;4860611;29;20045;-78
2022/08/01 04:38:13;;;;;;;6.90;5.07;;;;;;;;;;4859078;29;20578;-77
2022/08/01 04:40:39;;;;;;;11.70;5.15;;;;;;;;;;4860162;29;20048;-79
2022/08/01 04:43:05;;;;;;;11.15;6.95;;;;;;;;;;4860427;29;20114;-79
2022/08/01 04:45:31;;;;;;;9.23;6.15;;;;;;;;;;4858458;29;20038;-78
2022/08/01 04:47:57;;;;;;;15.50;6.07;;;;;;;;;;4858832;29;20134;-78
2022/08/01 04:50:24;;;;;;;6.43;4.97;;;;;;;;;;4859808;29;20045;-80
2022/08/01 04:52:51;;;;;;;7.78;4.43;;;;;;;;;;4843289;29;20049;-78
2022/08/01 04:55:17;;;;;;;8.10;4.60;;;;;;;;;;4859682;29;20488;-79
2022/08/01 04:57:43;;;;;;;8.45;4.38;;;;;;;;;;4843635;29;20050;-78
2022/08/01 05:00:10;;;;;;;6.72;4.03;;;;;;;;;;4845034;29;20049;-77
2022/08/01 05:02:36;;;;;;;5.25;4.85;;;;;;;;;;4879005;29;20037;-77
2022/08/01 05:05:02;;;;;;;5.10;4.45;;;;;;;;;;4860534;29;20048;-79
2022/08/01 05:07:29;;;;;;;7.90;4.55;;;;;;;;;;4843425;29;20061;-79
2022/08/01 05:09:55;;;;;;;4.20;3.78;;;;;;;;;;4859794;29;20388;-79
2022/08/01 05:12:21;;;;;;;4.82;4.20;;;;;;;;;;4859439;29;20057;-77
2022/08/01 05:14:46;;;;;;;4.97;3.97;;;;;;;;;;4859797;29;20077;-78
2022/08/01 05:17:13;;;;;;;9.45;4.22;;;;;;;;;;4859519;29;20102;-78
2022/08/01 05:19:39;;;;;;;8.43;4.25;;;;;;;;;;4859527;29;20053;-78
2022/08/01 05:22:06;;;;;;;3.92;3.55;;;;;;;;;;4859336;29;20092;-79
2022/08/01 05:24:33;;;;;;;8.45;3.92;;;;;;;;;;4859043;29;20400;-78
2022/08/01 05:26:59;;;;;;;8.75;3.97;;;;;;;;;;4859587;29;20053;-77
2022/08/01 05:29:25;;;;;;;6.45;3.45;;;;;;;;;;4857897;29;20053;-78
2022/08/01 05:31:51;;;;;;;4.50;4.00;;;;;;;;;;4859368;29;20418;-77
2022/08/01 05:34:17;;;;;;;4.97;3.30;;;;;;;;;;4859349;29;20042;-79
2022/08/01 05:36:43;;;;;;;3.75;2.80;;;;;;;;;;4859749;29;20136;-77
2022/08/01 05:39:09;;;;;;;10.30;3.08;;;;;;;;;;4851049;29;20077;-78
2022/08/01 05:41:36;;;;;;;8.77;3.20;;;;;;;;;;4871850;29;20056;-79
2022/08/01 05:44:02;;;;;;;12.05;3.63;;;;;;;;;;4836108;29;20423;-79
2022/08/01 05:46:30;;;;;;;8.68;2.90;;;;;;;;;;4859101;29;20049;-79
2022/08/01 05:48:56;;;;;;;4.38;2.30;;;;;;;;;;4842501;29;20527;-77
2022/08/01 05:51:23;;;;;;;4.70;2.65;;;;;;;;;;4858826;29;20045;-78
2022/08/01 05:53:49;;;;;;;12.80;4.10;;;;;;;;;;4859081;29;20061;-80
2022/08/01 05:56:15;;;;;;;11.73;3.22;;;;;;;;;;4841977;29;20053;-80
2022/08/01 05:58:41;;;;;;;4.28;3.00;;;;;;;;;;4858774;29;20506;-81
2022/08/01 06:01:07;;;;;;;3.47;2.35;;;;;;;;;;4858877;29;20037;-81
2022/08/01 06:03:33;;;;;;;3.10;2.17;;;;;;;;;;4842085;29;20518;-81
2022/08/01 06:06:00;;;;;;;4.72;2.42;;;;;;;;;;4858727;29;20041;-80
2022/08/01 06:08:26;;;;;;;5.85;2.50;;;;;;;;;;4858603;29;20065;-79
2022/08/01 06:10:52;;;;;;;3.03;2.38;;;;;;;;;;4858745;29;20038;-78
2022/08/01 06:13:19;;;;;;;5.65;2.55;;;;;;;;;;4858441;29;20059;-78
2022/08/01 06:15:45;;;;;;;3.85;2.60;;;;;;;;;;4858701;29;20102;-78
2022/08/01 06:18:11;;;;;;;10.98;3.00;;;;;;;;;;4842417;29;20060;-79
2022/08/01 06:20:37;;;;;;;3.55;2.67;;;;;;;;;;4858412;29;20064;-79
2022/08/01 06:23:03;;;;;;;10.75;3.60;;;;;;;;;;4858577;29;20076;-78
2022/08/01 06:25:29;;;;;;;5.32;2.75;;;;;;;;;;4858495;29;20547;-79
2022/08/01 06:27:55;;;;;;;3.15;2.72;;;;;;;;;;4858435;29;20764;-80
2022/08/01 06:30:21;;;;;;;6.68;2.83;;;;;;;;;;4841512;29;20128;-79
2022/08/01 06:32:47;;;;;;;4.80;2.80;;;;;;;;;;4858654;29;20049;-81
2022/08/01 06:35:13;;;;;;;8.57;2.55;;;;;;;;;;4858533;29;20048;-80
2022/08/01 06:37:39;;;;;;;6.03;3.25;;;;;;;;;;4857252;29;20140;-79
2022/08/01 06:40:06;;;;;;;6.43;2.10;;;;;;;;;;4841847;29;20132;-81
2022/08/01 06:42:35;;;;;;;2.58;2.20;;;;;;;;;;4858056;29;20539;-80
2022/08/01 06:45:02;;;;;;;4.85;2.20;;;;;;;;;;4858353;29;20038;-79
2022/08/01 06:47:29;;;;;;;13.65;2.58;;;;;;;;;;4857651;29;20416;-80
2022/08/01 06:49:55;;;;;;;5.32;2.15;;;;;;;;;;4841782;29;20205;-79
2022/08/01 06:52:21;;;;;;;8.35;3.00;;;;;;;;;;4841581;29;20045;-80
2022/08/01 06:54:47;;;;;;;3.97;2.47;;;;;;;;;;4868573;29;20216;-80
2022/08/01 06:57:14;;;;;;;5.55;1.83;;;;;;;;;;4869486;29;20472;-81
2022/08/01 06:59:39;;;;;;;2.13;1.95;;;;;;;;;;4842289;29;20046;-80
2022/08/01 07:02:06;;;;;;;3.28;1.98;;;;;;;;;;4858000;29;20045;-78
2022/08/01 07:04:32;;;;;;;3.92;1.92;;;;;;;;;;4857964;29;20045;-80
2022/08/01 07:06:58;;;;;;;2.35;2.13;;;;;;;;;;4857751;29;20098;-79
2022/08/01 07:09:24;;;;;;;5.47;2.00;;;;;;;;;;4857592;29;20049;-80
2022/08/01 07:11:52;;;;;;;5.95;2.25;;;;;;;;;;4857787;29;20114;-79
2022/08/01 07:14:18;;;;;;;3.42;2.42;;;;;;;;;;4857404;29;20042;-81
2022/08/01 07:16:44;;;;;;;5.55;2.15;;;;;;;;;;4857911;29;20050;-79
2022/08/01 07:19:10;;;;;;;2.10;1.95;;;;;;;;;;4857923;29;20056;-80
2022/08/01 07:21:35;;;;;;;4.10;2.28;;;;;;;;;;4857466;29;20691;-81
2022/08/01 07:24:01;;;;;;;5.53;2.33;;;;;;;;;;4857726;29;20056;-80
2022/08/01 07:26:27;;;;;;;4.90;2.00;;;;;;;;;;4857183;29;20529;-80
2022/08/01 07:28:53;;;;;;;2.85;1.88;;;;;;;;;;4840783;29;20057;-78
2022/08/01 07:31:19;;;;;;;4.65;2.30;;;;;;;;;;4857141;29;20045;-81
2022/08/01 07:33:45;;;;;;;2.30;2.10;;;;;;;;;;4857638;29;20542;-79
2022/08/01 07:36:11;;;;;;;2.65;2.00;;;;;;;;;;4857511;29;20052;-80
2022/08/01 07:38:37;;;;;;;2.08;1.70;;;;;;;;;;4840649;29;20050;-80
2022/08/01 07:41:03;;;;;;;4.97;2.10;;;;;;;;;;4857500;29;20046;-80
2022/08/01 07:43:29;;;;;;;4.15;2.10;;;;;;;;;;4857558;29;20057;-80
2022/08/01 07:45:55;;;;;;;4.43;2.17;;;;;;;;;;4857385;29;20513;-78
2022/08/01 07:48:23;;;;;;;6.00;2.45;;;;;;;;;;4858597;29;20118;-79
2022/08/01 07:50:50;;;;;;;2.42;2.30;;;;;;;;;;4861292;29;20169;-80
2022/08/01 07:53:16;;;;;;;3.05;2.85;;;;;;;;;;4860991;29;20049;-78
2022/08/01 07:55:42;;;;;;;2.63;2.10;;;;;;;;;;4829093;29;20422;-79
2022/08/01 07:58:07;;;;;;;4.63;2.40;;;;;;;;;;4860849;29;20050;-80
2022/08/01 08:00:33;;;;;;;2.20;2.03;;;;;;;;;;4860933;29;20045;-79
2022/08/01 08:02:59;;;;;;;2.33;2.13;;;;;;;;;;4844113;29;20088;-80
2022/08/01 08:05:25;;;;;;;3.65;2.40;;;;;;;;;;4860577;29;20083;-80
2022/08/01 08:07:51;;;;;;;3.10;1.85;;;;;;;;;;4860582;29;20091;-80
2022/08/01 08:10:17;;;;;;;2.65;1.90;;;;;;;;;;4860920;29;20041;-81
2022/08/01 08:12:45;;;;;;;2.25;1.95;;;;;;;;;;4860696;29;20050;-80
2022/08/01 08:15:11;;;;;;;1.98;1.83;;;;;;;;;;4860993;29;20045;-80
2022/08/01 08:17:37;;;;;;;2.58;2.00;;;;;;;;;;4860586;29;20103;-80
2022/08/01 08:20:04;;;;;;;2.20;1.70;;;;;;;;;;4860693;29;20061;-80
2022/08/01 08:22:30;;;;;;;2.70;1.65;;;;;;;;;;4860413;29;20053;-80
2022/08/01 08:24:56;;;;;;;5.43;1.60;;;;;;;;;;4860537;29;20541;-80
2022/08/01 08:27:22;;;;;;;3.60;1.80;;;;;;;;;;4859971;29;20707;-81
2022/08/01 08:29:48;;;;;;;2.00;1.90;;;;;;;;;;4860677;29;20057;-78
2022/08/01 08:32:14;;;;;;;2.17;1.70;;;;;;;;;;4860509;29;20045;-80
2022/08/01 08:34:40;;;;;;;4.28;2.05;;;;;;;;;;4860383;29;20061;-80
2022/08/01 08:37:07;;;;;;;2.55;2.33;;;;;;;;;;4860422;29;20038;-80
2022/08/01 08:39:33;;;;;;;7.05;2.10;;;;;;;;;;4865745;29;20101;-80
2022/08/01 08:42:04;;;;;;;2.55;2.35;;;;;;;;;;4869199;29;20135;-79
2022/08/01 08:44:30;;;;;;;4.00;2.25;;;;;;;;;;4870212;29;20041;-81
2022/08/01 08:46:56;;;;;;;2.60;2.03;;;;;;;;;;4864495;29;20038;-81
2022/08/01 08:49:22;;;;;;;2.10;2.00;;;;;;;;;;4880949;29;20062;-80
2022/08/01 08:51:49;;;;;;;4.20;1.90;;;;;;;;;;4863946;29;20074;-81
2022/08/01 08:54:15;;;;;;;2.42;2.22;;;;;;;;;;4861648;29;20053;-80
2022/08/01 08:56:41;;;;;;;3.35;2.20;;;;;;;;;;4859938;29;20081;-80
2022/08/01 08:59:07;;;;;;;3.22;2.10;;;;;;;;;;4858457;29;20053;-81
2022/08/01 09:01:34;;;;;;;2.83;2.30;;;;;;;;;;4842922;29;20048;-79
2022/08/01 09:04:04;;;;;;;2.10;1.90;;;;;;;;;;4859023;29;20680;-81
2022/08/01 09:06:30;;;;;;;2.22;2.03;;;;;;;;;;4859967;29;20054;-81
2022/08/01 09:08:56;;;;;;;2.40;2.20;;;;;;;;;;4860012;29;20061;-79
2022/08/01 09:11:22;;;;;;;2.28;2.08;;;;;;;;;;4859755;29;20046;-81
2022/08/01 09:14:07;;;;;;;2.50;2.30;;;;;;;;;;4859615;29;20057;-81
2022/08/01 09:16:33;;;;;;;9.27;2.40;;;;;;;;;;4843025;29;20537;-80
2022/08/01 09:19:09;;;;;;;3.17;2.28;;;;;;;;;;4859974;29;20132;-81
2022/08/01 09:21:35;;;;;;;2.03;1.88;;;;;;;;;;4842871;29;20256;-80
2022/08/01 09:24:05;;;;;;;2.63;2.42;;;;;;;;;;4859929;29;20485;-80
2022/08/01 09:26:31;;;;;;;;;;;;;;;;;;4859753;29;20563;-80
2022/08/01 09:28:57;;;;;;;2.00;1.90;;;;;;;;;;4843254;29;20023;-80
2022/08/01 09:31:23;;;;;;;3.15;2.40;;;;;;;;;;4859522;29;20314;-80
2022/08/01 09:34:00;;;;;;;1.80;1.70;;;;;;;;;;4858483;29;20136;-80
2022/08/01 09:36:27;;;;;;;3.47;2.22;;;;;;;;;;4859596;29;20049;-80
2022/08/01 09:38:54;;;;;;;2.05;1.90;;;;;;;;;;4858661;29;20076;-81
2022/08/01 09:41:32;;;;;;;2.33;2.13;;;;;;;;;;4859658;29;20042;-83
2022/08/01 09:43:58;;;;;;;2.33;1.88;;;;;;;;;;4859933;29;20109;-82
2022/08/01 09:46:24;;;;;;;1.88;1.67;;;;;;;;;;4859915;29;20086;-82
2022/08/01 09:48:56;;;;;;;2.90;1.92;;;;;;;;;;4859622;29;20065;-81
2022/08/01 09:51:29;;;;;;;2.20;2.00;;;;;;;;;;4859513;29;20061;-81
2022/08/01 09:53:55;;;;;;;2.00;1.90;;;;;;;;;;4842979;29;20080;-80
2022/08/01 09:56:21;;;;;;;4.93;2.10;;;;;;;;;;4859471;29;20081;-81
2022/08/01 09:58:54;;;;;;;2.15;2.00;;;;;;;;;;4858059;29;20069;-81
2022/08/01 10:01:21;;;;;;;3.75;2.20;;;;;;;;;;4843094;29;20075;-81
2022/08/01 10:03:47;;;;;;;2.10;2.00;;;;;;;;;;4842212;29;20041;-81
2022/08/01 10:06:19;;;;;;;3.20;2.00;;;;;;;;;;4858682;29;20049;-81
2022/08/01 10:08:46;;;;;;;1.60;1.60;;;;;;;;;;4859208;29;20093;-81
2022/08/01 10:11:12;;;;;;;2.45;2.22;;;;;;;;;;4859193;29;20518;-81
2022/08/01 10:13:38;;;;;;;2.90;2.70;;;;;;;;;;4858820;29;20114;-80
2022/08/01 10:16:05;;;;;;;2.80;2.60;;;;;;;;;;4859359;29;20041;-82
2022/08/01 10:18:33;;;;;;;2.42;1.90;;;;;;;;;;4858801;29;20124;-81
2022/08/01 10:21:02;;;;;;;3.63;2.10;;;;;;;;;;4859373;29;20045;-81
2022/08/01 10:23:30;;;;;;;1.97;1.80;;;;;;;;;;4857596;29;20132;-82
2022/08/01 10:25:56;;;;;;;4.00;2.10;;;;;;;;;;4842768;29;20426;-81
2022/08/01 10:28:22;;;;;;;2.08;1.85;;;;;;;;;;4858739;29;20057;-82
2022/08/01 10:30:48;;;;;;;2.30;2.20;;;;;;;;;;4857430;29;20081;-81
2022/08/01 10:33:14;;;;;;;1.88;1.77;;;;;;;;;;4857329;29;20533;-81
2022/08/01 10:35:40;;;;;;;4.28;1.92;;;;;;;;;;4842150;29;20041;-80
2022/08/01 10:38:06;;;;;;;4.25;2.15;;;;;;;;;;4859039;29;20165;-81
2022/08/01 10:40:32;;;;;;;2.60;1.80;;;;;;;;;;4867187;29;20053;-81
2022/08/01 10:42:58;;;;;;;2.25;2.15;;;;;;;;;;4858339;29;20510;-81
2022/08/01 10:45:26;;;;;;;2.63;2.17;;;;;;;;;;4863377;29;20480;-80
2022/08/01 10:48:11;;;;;;;2.00;1.90;;;;;;;;;;4843509;29;20053;-82
2022/08/01 10:50:41;;;;;;;2.85;2.00;;;;;;;;;;4859588;29;20129;-81
2022/08/01 10:53:07;;;;;;;3.05;2.30;;;;;;;;;;4842743;29;20046;-81
2022/08/01 10:55:56;;;;;;;4.18;1.92;;;;;;;;;;4858881;29;20049;-82
2022/08/01 10:58:23;;;;;;;2.77;2.30;;;;;;;;;;4835228;29;20434;-82
2022/08/01 11:00:57;;;;;;;2.95;1.60;;;;;;;;;;4858943;29;20298;-81
2022/08/01 11:03:31;;;;;;;1.83;1.73;;;;;;;;;;4857288;29;20465;-80
2022/08/01 11:05:57;;;;;;;1.83;1.73;;;;;;;;;;4858636;29;20104;-79
2022/08/01 11:08:25;;;;;;;2.17;1.85;;;;;;;;;;4841731;29;20118;-82
2022/08/01 11:10:51;;;;;;;3.40;1.92;;;;;;;;;;4858539;29;20049;-80
2022/08/01 11:13:25;;;;;;;6.03;2.30;;;;;;;;;;4857557;29;20045;-83
2022/08/01 11:15:51;;;;;;;1.98;1.80;;;;;;;;;;4857135;29;20049;-82
2022/08/01 11:18:38;;;;;;;2.10;1.95;;;;;;;;;;4856753;29;20098;-82
2022/08/01 11:21:04;;;;;;;2.55;1.95;;;;;;;;;;4858209;29;20045;-83
2022/08/01 11:23:32;;;;;;;2.33;1.73;;;;;;;;;;4858450;29;20456;-82
2022/08/01 11:26:01;;;;;;;2.20;2.10;;;;;;;;;;4858940;29;20045;-80
2022/08/01 11:28:27;;;;;;;4.88;2.05;;;;;;;;;;4859051;29;20522;-81
2022/08/01 11:30:54;;;;;;;2.35;1.85;;;;;;;;;;4876153;29;20048;-82
2022/08/01 11:33:39;;;;;;;6.47;2.20;;;;;;;;;;4860387;29;20045;-81
2022/08/01 11:36:11;;;;;;;4.22;2.05;;;;;;;;;;4877231;29;20037;-81
2022/08/01 11:38:38;;;;;;;3.47;2.22;;;;;;;;;;4877265;29;20083;-81
2022/08/01 11:41:14;;;;;;;4.22;2.22;;;;;;;;;;4878180;29;20064;-80
2022/08/01 11:44:00;;;;;;;3.35;2.42;;;;;;;;;;4862505;29;20540;-80
2022/08/01 11:46:44;;;;;;;4.28;2.35;;;;;;;;;;4872887;29;20045;-80
2022/08/01 11:49:32;;;;;;;5.47;2.10;;;;;;;;;;4887665;29;20141;-82
2022/08/01 11:52:08;;;;;;;5.43;2.22;;;;;;;;;;4877620;29;20041;-82
2022/08/01 11:54:35;;;;;;;2.33;1.85;;;;;;;;;;4877157;29;20548;-83
2022/08/01 11:57:02;;;;;;;2.63;2.20;;;;;;;;;;4877043;29;20057;-80
2022/08/01 11:59:28;;;;;;;4.70;2.03;;;;;;;;;;4860222;29;20056;-82
2022/08/01 12:01:54;;;;;;;2.72;1.80;;;;;;;;;;4876734;29;20037;-81
2022/08/01 12:04:20;;;;;;;2.13;2.03;;;;;;;;;;4876750;29;20040;-82
2022/08/01 12:06:46;;;;;;;5.57;2.03;;;;;;;;;;4860461;29;20506;-81
2022/08/01 12:09:19;;;;;;;4.68;2.33;;;;;;;;;;4879071;29;20077;-82
2022/08/01 12:11:45;;;;;;;4.13;2.25;;;;;;;;;;4860608;29;20068;-82
2022/08/01 12:14:18;;;;;;;4.45;2.10;;;;;;;;;;4877179;29;20061;-81
2022/08/01 12:16:51;;;;;;;3.72;2.13;;;;;;;;;;4876806;29;20521;-82
2022/08/01 12:19:18;;;;;;;3.78;2.40;;;;;;;;;;4876968;29;20063;-82
2022/08/01 12:21:44;;;;;;;3.13;2.20;;;;;;;;;;4860053;29;20048;-81
2022/08/01 12:24:10;;;;;;;3.97;2.40;;;;;;;;;;4876945;29;20045;-81
2022/08/01 12:26:40;;;;;;;6.05;2.30;;;;;;;;;;4860096;29;20045;-81
2022/08/01 12:29:05;;;;;;;4.70;2.13;;;;;;;;;;4860589;29;20093;-81
2022/08/01 12:31:34;;;;;;;4.10;2.20;;;;;;;;;;4877071;29;20104;-82
2022/08/01 12:34:19;;;;;;;3.92;2.15;;;;;;;;;;4878878;29;20076;-79
2022/08/01 12:36:45;;;;;;;2.17;2.03;;;;;;;;;;4870223;29;20051;-81
2022/08/01 12:39:11;;;;;;;3.50;2.28;;;;;;;;;;4882036;29;20131;-83
2022/08/01 12:41:37;;;;;;;2.88;2.30;;;;;;;;;;4880087;29;20052;-81
2022/08/01 12:44:11;;;;;;;3.58;2.17;;;;;;;;;;4879645;29;20064;-81
2022/08/01 12:46:37;;;;;;;3.60;2.00;;;;;;;;;;4880219;29;20041;-83
2022/08/01 12:49:04;;;;;;;3.42;1.98;;;;;;;;;;4863413;29;20060;-82
2022/08/01 12:51:29;;;;;;;3.83;2.00;;;;;;;;;;4862968;29;20041;-82
2022/08/01 12:53:58;;;;;;;3.47;2.20;;;;;;;;;;4879482;29;20040;-82
2022/08/01 12:56:31;;;;;;;2.40;2.20;;;;;;;;;;4862356;29;20112;-81
2022/08/01 12:58:59;;;;;;;3.42;2.15;;;;;;;;;;4847053;29;20620;-81
2022/08/01 13:01:25;;;;;;;2.05;1.95;;;;;;;;;;4863146;29;20545;-80
2022/08/01 13:03:59;;;;;;;2.75;1.80;;;;;;;;;;4879691;29;20491;-82
2022/08/01 13:06:27;;;;;;;2.17;2.00;;;;;;;;;;4880678;29;20084;-82
2022/08/01 13:08:53;;;;;;;2.00;1.90;;;;;;;;;;4864142;29;20151;-80
2022/08/01 13:11:19;;;;;;;2.60;2.40;;;;;;;;;;4879610;29;20052;-82
2022/08/01 13:13:49;;;;;;;2.83;2.10;;;;;;;;;;4877808;29;20041;-83
2022/08/01 13:16:16;;;;;;;2.05;1.95;;;;;;;;;;4879548;29;20049;-81
2022/08/01 13:18:42;;;;;;;2.22;2.13;;;;;;;;;;4862667;29;20052;-82
2022/08/01 13:21:15;;;;;;;2.33;2.15;;;;;;;;;;4832984;29;20037;-83
2022/08/01 13:23:41;;;;;;;3.05;2.05;;;;;;;;;;4879543;29;20056;-80
2022/08/01 13:26:07;;;;;;;7.07;2.17;;;;;;;;;;4863348;29;20043;-81
2022/08/01 13:28:36;;;;;;;4.32;2.10;;;;;;;;;;4879293;29;20082;-81
2022/08/01 13:31:10;;;;;;;2.30;2.10;;;;;;;;;;4879496;29;20072;-80
2022/08/01 13:33:42;;;;;;;2.75;2.00;;;;;;;;;;4879815;29;20049;-79
2022/08/01 13:36:08;;;;;;;3.58;2.10;;;;;;;;;;4880094;29;20045;-82
2022/08/01 13:41:20;;;;;;;3.05;2.25;;;;;;;;;;4890408;29;20049;-80
2022/08/01 13:43:46;;;;;;;5.22;2.10;;;;;;;;;;4887587;29;20048;-81
2022/08/01 13:46:12;;;;;;;2.15;2.00;;;;;;;;;;4880369;29;20124;-82
2022/08/01 13:48:38;;;;;;;3.55;1.95;;;;;;;;;;4879905;29;20128;-81
2022/08/01 13:51:04;;;;;;;2.78;2.00;;;;;;;;;;4880362;29;20053;-82
2022/08/01 13:53:30;;;;;;;2.90;2.15;;;;;;;;;;4878487;29;20075;-82
2022/08/01 13:55:57;;;;;;;2.35;1.98;;;;;;;;;;4831382;29;20482;-81
2022/08/01 13:58:23;;;;;;;2.17;1.85;;;;;;;;;;4878468;29;20056;-82
2022/08/01 14:00:49;;;;;;;3.60;2.00;;;;;;;;;;4878123;29;20127;-82
2022/08/01 14:03:16;;;;;;;2.47;2.38;;;;;;;;;;4861563;29;20124;-82
2022/08/01 14:05:42;;;;;;;2.55;2.20;;;;;;;;;;4878408;29;20052;-81
2022/08/01 14:08:08;;;;;;;2.50;2.30;;;;;;;;;;4878393;29;20140;-81
2022/08/01 14:10:34;;;;;;;3.28;2.40;;;;;;;;;;4862441;29;20132;-82
2022/08/01 14:13:00;;;;;;;3.38;2.22;;;;;;;;;;4862335;29;20052;-82
2022/08/01 14:15:26;;;;;;;7.22;2.30;;;;;;;;;;4880031;29;20955;-81
2022/08/01 14:17:52;;;;;;;6.70;2.20;;;;;;;;;;4878345;29;20053;-81
2022/08/01 14:20:19;;;;;;;2.08;1.98;;;;;;;;;;4862401;29;20051;-80
2022/08/01 14:22:46;;;;;;;8.13;2.20;;;;;;;;;;4863488;29;20056;-82
2022/08/01 14:25:11;;;;;;;7.47;2.63;;;;;;;;;;4895871;29;20036;-81
2022/08/01 14:27:39;;;;;;;2.80;2.20;;;;;;;;;;4883107;29;20103;-80
2022/08/01 14:30:05;;;;;;;3.63;2.22;;;;;;;;;;4880327;29;20045;-81
2022/08/01 14:32:33;;;;;;;2.55;2.25;;;;;;;;;;4878408;29;20044;-82
2022/08/01 14:34:59;;;;;;;2.60;2.35;;;;;;;;;;4878328;29;20467;-81
2022/08/01 14:37:25;;;;;;;4.05;3.50;;;;;;;;;;4878210;29;20226;-83
2022/08/01 14:39:51;;;;;;;3.75;2.80;;;;;;;;;;4878172;29;20044;-81
2022/08/01 14:42:17;;;;;;;2.67;2.38;;;;;;;;;;4877716;29;20383;-79
2022/08/01 14:44:43;;;;;;;4.63;2.53;;;;;;;;;;4878011;29;20052;-82
2022/08/01 14:47:09;;;;;;;8.52;2.70;;;;;;;;;;4878355;29;20063;-82
2022/08/01 14:49:35;;;;;;;3.35;3.08;;;;;;;;;;4877854;29;20052;-80
2022/08/01 14:52:02;;;;;;;3.33;2.83;;;;;;;;;;4861167;29;20045;-82
2022/08/01 14:54:28;;;;;;;5.30;2.80;;;;;;;;;;4878156;29;20504;-81
2022/08/01 14:56:54;;;;;;;5.50;2.70;;;;;;;;;;4877786;29;20091;-82
2022/08/01 14:59:20;;;;;;;4.70;2.70;;;;;;;;;;4877182;29;20076;-80
2022/08/01 15:01:46;;;;;;;4.78;3.00;;;;;;;;;;4877574;29;20124;-82
2022/08/01 15:04:12;;;;;;;5.43;2.80;;;;;;;;;;4860518;29;20041;-81
2022/08/01 15:06:38;;;;;;;3.05;2.60;;;;;;;;;;4876954;29;20071;-81
2022/08/01 15:09:04;;;;;;;2.50;2.40;;;;;;;;;;4859778;29;20061;-80
2022/08/01 15:11:30;;;;;;;5.45;2.40;;;;;;;;;;4859635;29;20053;-79
2022/08/01 15:16:41;;;;;;;2.80;2.60;;;;;;;;;;4876176;29;20033;-79
2022/08/01 15:19:07;;;;;;;5.68;2.70;;;;;;;;;;4875656;29;20063;-80
2022/08/01 15:21:33;;;;;;;4.25;3.80;;;;;;;;;;4875988;29;20041;-80
2022/08/01 15:23:59;;;;;;;4.15;2.90;;;;;;;;;;4875949;29;20060;-78
2022/08/01 15:26:25;;;;;;;3.13;2.80;;;;;;;;;;4876231;29;20061;-78
2022/08/01 15:28:51;;;;;;;6.85;3.10;;;;;;;;;;4876190;29;20467;-80
2022/08/01 15:31:17;;;;;;;2.60;2.40;;;;;;;;;;4875909;29;20101;-78
2022/08/01 15:33:43;;;;;;;2.80;2.60;;;;;;;;;;4858996;29;20052;-79
2022/08/01 15:36:09;;;;;;;3.47;2.67;;;;;;;;;;4875549;29;20041;-80
2022/08/01 15:38:35;;;;;;;4.88;3.05;;;;;;;;;;4875759;29;20048;-80